AIC255 OMDB-VIDP
Flight info
| Callsign | AIC255 |
|---|---|
| Flight time | N/A |
| Altitude | 39000 |
| Route | IVURO M677 LALDO B505 EGTAL R462 BIVIN G214 RK G202 MERUN G452 LKA LKA7E |
| Aircraft | B77W/H-SDE1E2E3FGHIJ2J3J4J5M1RWXY/LB1D1 |
Departure
| Time | 2026-05-08 05:11 |
|---|---|
| Airport | Dubai International Airport (OMDB) |
Arrival
| Time | N/A |
|---|---|
| Airport | Indira Gandhi International Airport (VIDP) |
| Time | Latitude | Longitude | Altitude | Speed | Heading |
|---|---|---|---|---|---|
| 2026-05-08 04:37 | 25.25852 | 55.34574 | 27 ft | 0 kts | 211° |
| 2026-05-08 04:53 | 25.25861 | 55.34580 | 27 ft | 2 kts | 211° |
| 2026-05-08 04:53 | 25.25878 | 55.34592 | 26 ft | 2 kts | 211° |
| 2026-05-08 04:54 | 25.25896 | 55.34604 | 25 ft | 2 kts | 211° |
| 2026-05-08 04:54 | 25.25911 | 55.34614 | 24 ft | 2 kts | 202° |
| 2026-05-08 04:54 | 25.25929 | 55.34618 | 25 ft | 3 kts | 164° |
| 2026-05-08 04:54 | 25.25944 | 55.34608 | 26 ft | 3 kts | 124° |
| 2026-05-08 04:55 | 25.25954 | 55.34589 | 25 ft | 3 kts | 115° |
| 2026-05-08 04:55 | 25.25960 | 55.34575 | 27 ft | 0 kts | 121° |
| 2026-05-08 04:58 | 25.25929 | 55.34631 | 27 ft | 14 kts | 122° |
| 2026-05-08 04:58 | 25.25873 | 55.34730 | 27 ft | 16 kts | 122° |
| 2026-05-08 04:58 | 25.25813 | 55.34836 | 27 ft | 16 kts | 122° |
| 2026-05-08 04:58 | 25.25762 | 55.34947 | 27 ft | 16 kts | 99° |
| 2026-05-08 04:59 | 25.25824 | 55.35043 | 27 ft | 16 kts | 34° |
| 2026-05-08 04:59 | 25.25921 | 55.35111 | 27 ft | 19 kts | 31° |
| 2026-05-08 04:59 | 25.26056 | 55.35198 | 27 ft | 13 kts | 31° |
| 2026-05-08 04:59 | 25.26121 | 55.35267 | 27 ft | 14 kts | 74° |
| 2026-05-08 05:00 | 25.26070 | 55.35417 | 27 ft | 31 kts | 123° |
| 2026-05-08 05:00 | 25.25947 | 55.35631 | 27 ft | 33 kts | 121° |
| 2026-05-08 05:00 | 25.25829 | 55.35840 | 27 ft | 31 kts | 122° |
| 2026-05-08 05:00 | 25.25716 | 55.36039 | 27 ft | 30 kts | 122° |
| 2026-05-08 05:01 | 25.25605 | 55.36234 | 27 ft | 30 kts | 122° |
| 2026-05-08 05:01 | 25.25497 | 55.36427 | 27 ft | 30 kts | 121° |
| 2026-05-08 05:01 | 25.25388 | 55.36624 | 27 ft | 30 kts | 122° |
| 2026-05-08 05:01 | 25.25278 | 55.36819 | 27 ft | 30 kts | 122° |
| 2026-05-08 05:02 | 25.25166 | 55.37013 | 27 ft | 30 kts | 122° |
| 2026-05-08 05:02 | 25.25058 | 55.37210 | 27 ft | 30 kts | 121° |
| 2026-05-08 05:02 | 25.24948 | 55.37405 | 27 ft | 30 kts | 122° |
| 2026-05-08 05:02 | 25.24839 | 55.37601 | 27 ft | 30 kts | 121° |
| 2026-05-08 05:03 | 25.24731 | 55.37797 | 27 ft | 30 kts | 122° |
| 2026-05-08 05:03 | 25.24676 | 55.37930 | 27 ft | 11 kts | 80° |
| 2026-05-08 05:03 | 25.24686 | 55.37956 | 27 ft | 0 kts | 49° |
| 2026-05-08 05:03 | 25.24689 | 55.37959 | 27 ft | 1 kts | 49° |
| 2026-05-08 05:04 | 25.24692 | 55.37963 | 27 ft | 0 kts | 46° |
| 2026-05-08 05:04 | 25.24693 | 55.37964 | 27 ft | 0 kts | 46° |
| 2026-05-08 05:08 | 25.24694 | 55.37965 | 27 ft | 5 kts | 46° |
| 2026-05-08 05:08 | 25.24765 | 55.38014 | 27 ft | 14 kts | 7° |
| 2026-05-08 05:09 | 25.24836 | 55.37964 | 27 ft | 0 kts | 301° |
| 2026-05-08 05:09 | 25.24838 | 55.37962 | 27 ft | 1 kts | 301° |
| 2026-05-08 05:10 | 25.24839 | 55.37960 | 27 ft | 1 kts | 301° |
| 2026-05-08 05:10 | 25.25178 | 55.37345 | 27 ft | 121 kts | 302° |
| 2026-05-08 05:10 | 25.25748 | 55.36336 | 61 ft | 181 kts | 302° |
| 2026-05-08 05:11 | 25.26446 | 55.35128 | 643 ft | 192 kts | 300° |
| 2026-05-08 05:11 | 25.27163 | 55.33853 | 1264 ft | 201 kts | 299° |
| 2026-05-08 05:11 | 25.27906 | 55.32478 | 1840 ft | 214 kts | 299° |
| 2026-05-08 05:11 | 25.28690 | 55.31055 | 2598 ft | 220 kts | 300° |
| 2026-05-08 05:12 | 25.29758 | 55.29818 | 3194 ft | 233 kts | 331° |
| 2026-05-08 05:12 | 25.31343 | 55.29472 | 3817 ft | 235 kts | 358° |
| 2026-05-08 05:12 | 25.32979 | 55.29526 | 4024 ft | 243 kts | 358° |
| 2026-05-08 05:12 | 25.34671 | 55.29571 | 4514 ft | 245 kts | 358° |
| 2026-05-08 05:13 | 25.36369 | 55.29620 | 5391 ft | 244 kts | 358° |
| 2026-05-08 05:13 | 25.38073 | 55.29664 | 6230 ft | 245 kts | 360° |
| 2026-05-08 05:13 | 25.39746 | 55.30037 | 6817 ft | 254 kts | 27° |
| 2026-05-08 05:13 | 25.41135 | 55.31377 | 7104 ft | 279 kts | 50° |
| 2026-05-08 05:14 | 25.42354 | 55.33121 | 7649 ft | 291 kts | 51° |
| 2026-05-08 05:14 | 25.43624 | 55.34890 | 8414 ft | 297 kts | 51° |
| 2026-05-08 05:14 | 25.44922 | 55.36685 | 9251 ft | 300 kts | 51° |
| 2026-05-08 05:14 | 25.46218 | 55.38466 | 10060 ft | 302 kts | 52° |
| 2026-05-08 05:15 | 25.47557 | 55.40300 | 10609 ft | 318 kts | 52° |
| 2026-05-08 05:15 | 25.49009 | 55.42307 | 10821 ft | 346 kts | 53° |
| 2026-05-08 05:15 | 25.50536 | 55.44495 | 11012 ft | 373 kts | 53° |
| 2026-05-08 05:15 | 25.51940 | 55.46960 | 11290 ft | 385 kts | 70° |
| 2026-05-08 05:16 | 25.52426 | 55.49867 | 12037 ft | 387 kts | 93° |
| 2026-05-08 05:16 | 25.51961 | 55.52778 | 13116 ft | 384 kts | 111° |
| 2026-05-08 05:16 | 25.50759 | 55.55348 | 14009 ft | 382 kts | 123° |
| 2026-05-08 05:16 | 25.49271 | 55.57872 | 14664 ft | 392 kts | 124° |
| 2026-05-08 05:17 | 25.47778 | 55.60381 | 15394 ft | 399 kts | 124° |
| 2026-05-08 05:17 | 25.46260 | 55.62978 | 16194 ft | 404 kts | 123° |
| 2026-05-08 05:17 | 25.44743 | 55.65620 | 16976 ft | 410 kts | 123° |
| 2026-05-08 05:17 | 25.43215 | 55.68312 | 17753 ft | 416 kts | 121° |
| 2026-05-08 05:18 | 25.42038 | 55.71229 | 18377 ft | 422 kts | 105° |
| 2026-05-08 05:18 | 25.41457 | 55.74437 | 18921 ft | 430 kts | 101° |
| 2026-05-08 05:18 | 25.40864 | 55.77698 | 19563 ft | 435 kts | 103° |
| 2026-05-08 05:18 | 25.40189 | 55.80975 | 20220 ft | 439 kts | 104° |
| 2026-05-08 05:19 | 25.39443 | 55.84416 | 20890 ft | 445 kts | 105° |
| 2026-05-08 05:19 | 25.38744 | 55.87621 | 21494 ft | 450 kts | 104° |
| 2026-05-08 05:19 | 25.38022 | 55.90971 | 22105 ft | 455 kts | 104° |
| 2026-05-08 05:19 | 25.37291 | 55.94385 | 22714 ft | 460 kts | 104° |
| 2026-05-08 05:20 | 25.36555 | 55.97835 | 23291 ft | 465 kts | 105° |
| 2026-05-08 05:20 | 25.35809 | 56.01332 | 23767 ft | 470 kts | 105° |
| 2026-05-08 05:20 | 25.35054 | 56.04870 | 24238 ft | 474 kts | 105° |
| 2026-05-08 05:20 | 25.34292 | 56.08433 | 24713 ft | 478 kts | 105° |
| 2026-05-08 05:21 | 25.33534 | 56.11972 | 25163 ft | 482 kts | 105° |
| 2026-05-08 05:21 | 25.32766 | 56.15592 | 25600 ft | 487 kts | 104° |
| 2026-05-08 05:21 | 25.32235 | 56.19313 | 26015 ft | 493 kts | 97° |
| 2026-05-08 05:21 | 25.31959 | 56.23106 | 26458 ft | 497 kts | 95° |
| 2026-05-08 05:22 | 25.31753 | 56.26933 | 26888 ft | 501 kts | 95° |
| 2026-05-08 05:22 | 25.31518 | 56.30762 | 27299 ft | 505 kts | 96° |
| 2026-05-08 05:22 | 25.31219 | 56.34644 | 27692 ft | 509 kts | 96° |
| 2026-05-08 05:22 | 25.30885 | 56.38553 | 28068 ft | 513 kts | 96° |
| 2026-05-08 05:23 | 25.30649 | 56.42503 | 28448 ft | 517 kts | 94° |
| 2026-05-08 05:23 | 25.30548 | 56.46482 | 28807 ft | 521 kts | 92° |
| 2026-05-08 05:23 | 25.30470 | 56.50494 | 29147 ft | 524 kts | 92° |
| 2026-05-08 05:23 | 25.30340 | 56.54526 | 29463 ft | 526 kts | 96° |
| 2026-05-08 05:24 | 25.29916 | 56.58261 | 29839 ft | 526 kts | 102° |
| 2026-05-08 05:24 | 25.29112 | 56.62194 | 30252 ft | 524 kts | 107° |
| 2026-05-08 05:24 | 25.28021 | 56.66021 | 30726 ft | 520 kts | 113° |
| 2026-05-08 05:24 | 25.26649 | 56.69692 | 31183 ft | 517 kts | 115° |
| 2026-05-08 05:25 | 25.25232 | 56.73341 | 31659 ft | 516 kts | 115° |
| 2026-05-08 05:25 | 25.23818 | 56.76970 | 32103 ft | 515 kts | 115° |
| 2026-05-08 05:25 | 25.22409 | 56.80605 | 32563 ft | 513 kts | 115° |
| 2026-05-08 05:25 | 25.21035 | 56.84179 | 33030 ft | 512 kts | 115° |
| 2026-05-08 05:26 | 25.19650 | 56.87802 | 33465 ft | 512 kts | 115° |
| 2026-05-08 05:26 | 25.18274 | 56.91416 | 33865 ft | 511 kts | 115° |
| 2026-05-08 05:26 | 25.16898 | 56.95036 | 34265 ft | 510 kts | 115° |
| 2026-05-08 05:26 | 25.15529 | 56.98637 | 34661 ft | 508 kts | 115° |
| 2026-05-08 05:27 | 25.14167 | 57.02217 | 35138 ft | 504 kts | 115° |
| 2026-05-08 05:27 | 25.12811 | 57.05775 | 35568 ft | 502 kts | 115° |
| 2026-05-08 05:27 | 25.11457 | 57.09323 | 35904 ft | 502 kts | 115° |
| 2026-05-08 05:27 | 25.10100 | 57.12872 | 36210 ft | 502 kts | 115° |
| 2026-05-08 05:28 | 25.08758 | 57.16380 | 36499 ft | 503 kts | 115° |
| 2026-05-08 05:28 | 25.07400 | 57.19926 | 36849 ft | 502 kts | 115° |
| 2026-05-08 05:28 | 25.06045 | 57.23463 | 37212 ft | 500 kts | 115° |
| 2026-05-08 05:28 | 25.04692 | 57.26991 | 37558 ft | 499 kts | 115° |
| 2026-05-08 05:29 | 25.03350 | 57.30488 | 37860 ft | 499 kts | 115° |
| 2026-05-08 05:29 | 25.01996 | 57.34015 | 38185 ft | 498 kts | 115° |
| 2026-05-08 05:29 | 25.00646 | 57.37525 | 38479 ft | 497 kts | 115° |
| 2026-05-08 05:29 | 24.99294 | 57.41039 | 38691 ft | 498 kts | 115° |
| 2026-05-08 05:30 | 24.97938 | 57.44560 | 38745 ft | 501 kts | 115° |
| 2026-05-08 05:30 | 24.95235 | 57.51571 | 38821 ft | 500 kts | 115° |
| 2026-05-08 05:31 | 24.92530 | 57.58580 | 38815 ft | 494 kts | 115° |
| 2026-05-08 05:31 | 24.89868 | 57.65462 | 38821 ft | 492 kts | 115° |
| 2026-05-08 05:32 | 24.87183 | 57.72396 | 38821 ft | 492 kts | 115° |
| 2026-05-08 05:32 | 24.86107 | 57.75922 | 38809 ft | 495 kts | 104° |
| 2026-05-08 05:32 | 24.85560 | 57.79669 | 38837 ft | 497 kts | 96° |
| 2026-05-08 05:33 | 24.85739 | 57.87281 | 38831 ft | 499 kts | 84° |
| 2026-05-08 05:33 | 24.86550 | 57.94901 | 38817 ft | 503 kts | 84° |
| 2026-05-08 05:34 | 24.87354 | 58.02558 | 38822 ft | 505 kts | 84° |
| 2026-05-08 05:34 | 24.88117 | 58.10244 | 38810 ft | 506 kts | 85° |
| 2026-05-08 05:35 | 24.88854 | 58.17913 | 38807 ft | 507 kts | 85° |
| 2026-05-08 05:35 | 24.89588 | 58.25633 | 38808 ft | 507 kts | 85° |
| 2026-05-08 05:36 | 24.90321 | 58.33352 | 38799 ft | 506 kts | 85° |
| 2026-05-08 05:36 | 24.91050 | 58.41059 | 38798 ft | 505 kts | 85° |
| 2026-05-08 05:37 | 24.91774 | 58.48754 | 38791 ft | 505 kts | 85° |
| 2026-05-08 05:37 | 24.92488 | 58.56380 | 38794 ft | 504 kts | 85° |
| 2026-05-08 05:38 | 24.93204 | 58.64076 | 38796 ft | 503 kts | 85° |
| 2026-05-08 05:38 | 24.93911 | 58.71714 | 38803 ft | 503 kts | 85° |
| 2026-05-08 05:39 | 24.94616 | 58.79379 | 38792 ft | 503 kts | 85° |
| 2026-05-08 05:39 | 24.95318 | 58.87050 | 38783 ft | 503 kts | 85° |
| 2026-05-08 05:40 | 24.96010 | 58.94666 | 38784 ft | 503 kts | 85° |
| 2026-05-08 05:40 | 24.96705 | 59.02345 | 38797 ft | 504 kts | 85° |
| 2026-05-08 05:41 | 24.97396 | 59.10029 | 38787 ft | 504 kts | 85° |
| 2026-05-08 05:41 | 24.98083 | 59.17715 | 38782 ft | 504 kts | 85° |
| 2026-05-08 05:42 | 24.98761 | 59.25349 | 38795 ft | 504 kts | 85° |
| 2026-05-08 05:42 | 24.99441 | 59.33047 | 38780 ft | 505 kts | 85° |
| 2026-05-08 05:43 | 25.00118 | 59.40752 | 38774 ft | 505 kts | 85° |
| 2026-05-08 05:43 | 25.00792 | 59.48466 | 38777 ft | 505 kts | 85° |
| 2026-05-08 05:44 | 25.01456 | 59.56125 | 38776 ft | 505 kts | 85° |
| 2026-05-08 05:44 | 25.02120 | 59.63820 | 38774 ft | 506 kts | 85° |
| 2026-05-08 05:45 | 25.02781 | 59.71532 | 38772 ft | 506 kts | 85° |
| 2026-05-08 05:45 | 25.03439 | 59.79254 | 38773 ft | 505 kts | 85° |
| 2026-05-08 05:46 | 25.04088 | 59.86917 | 38769 ft | 505 kts | 85° |
| 2026-05-08 05:46 | 25.04738 | 59.94639 | 38769 ft | 505 kts | 85° |
| 2026-05-08 05:47 | 25.05383 | 60.02354 | 38776 ft | 505 kts | 85° |
| 2026-05-08 05:47 | 25.06025 | 60.10075 | 38768 ft | 505 kts | 85° |
| 2026-05-08 05:48 | 25.06658 | 60.17742 | 38765 ft | 505 kts | 85° |
| 2026-05-08 05:48 | 25.07288 | 60.25415 | 38551 ft | 492 kts | 85° |
| 2026-05-08 05:48 | 25.07589 | 60.29104 | 37922 ft | 474 kts | 85° |
| 2026-05-08 05:49 | 25.07883 | 60.32710 | 36428 ft | 475 kts | 85° |
| 2026-05-08 05:49 | 25.08182 | 60.36394 | 34628 ft | 495 kts | 85° |
| 2026-05-08 05:49 | 25.08483 | 60.40124 | 34045 ft | 494 kts | 85° |
| 2026-05-08 05:49 | 25.08789 | 60.43926 | 33046 ft | 501 kts | 85° |
| 2026-05-08 05:50 | 25.09098 | 60.47769 | 32119 ft | 505 kts | 84° |
| 2026-05-08 05:50 | 25.09407 | 60.51635 | 31175 ft | 508 kts | 84° |
| 2026-05-08 05:50 | 25.09719 | 60.55534 | 30256 ft | 512 kts | 84° |
| 2026-05-08 05:50 | 25.10029 | 60.59429 | 29555 ft | 508 kts | 84° |
| 2026-05-08 05:51 | 25.10337 | 60.63301 | 28800 ft | 504 kts | 84° |
| 2026-05-08 05:51 | 25.10640 | 60.67128 | 28119 ft | 499 kts | 84° |
| 2026-05-08 05:51 | 25.10939 | 60.70923 | 27467 ft | 494 kts | 84° |
| 2026-05-08 05:51 | 25.11230 | 60.74630 | 26835 ft | 489 kts | 84° |
| 2026-05-08 05:52 | 25.11521 | 60.78349 | 26196 ft | 484 kts | 84° |
| 2026-05-08 05:52 | 25.11809 | 60.82037 | 25580 ft | 480 kts | 84° |
| 2026-05-08 05:52 | 25.12092 | 60.85681 | 24951 ft | 476 kts | 84° |
| 2026-05-08 05:52 | 25.12374 | 60.89307 | 24322 ft | 472 kts | 84° |
| 2026-05-08 05:53 | 25.12651 | 60.92890 | 23701 ft | 468 kts | 84° |
| 2026-05-08 05:53 | 25.12925 | 60.96451 | 23023 ft | 459 kts | 84° |
| 2026-05-08 05:53 | 25.13192 | 60.99929 | 22370 ft | 453 kts | 84° |
| 2026-05-08 05:53 | 25.13453 | 61.03332 | 21761 ft | 448 kts | 84° |
| 2026-05-08 05:54 | 25.13713 | 61.06737 | 21169 ft | 444 kts | 84° |
| 2026-05-08 05:54 | 25.13969 | 61.10107 | 20579 ft | 439 kts | 84° |
| 2026-05-08 05:54 | 25.14223 | 61.13447 | 19988 ft | 435 kts | 84° |
| 2026-05-08 05:54 | 25.14474 | 61.16753 | 19421 ft | 431 kts | 84° |
| 2026-05-08 05:55 | 25.14722 | 61.20027 | 18835 ft | 427 kts | 85° |
| 2026-05-08 05:55 | 25.14967 | 61.23284 | 18262 ft | 424 kts | 85° |
| 2026-05-08 05:55 | 25.15209 | 61.26516 | 17626 ft | 421 kts | 85° |
| 2026-05-08 05:55 | 25.15445 | 61.29676 | 17014 ft | 416 kts | 85° |
| 2026-05-08 05:56 | 25.15681 | 61.32839 | 16460 ft | 412 kts | 85° |
| 2026-05-08 05:56 | 25.15914 | 61.35976 | 15888 ft | 408 kts | 85° |
| 2026-05-08 05:56 | 25.16144 | 61.39082 | 15346 ft | 404 kts | 85° |
| 2026-05-08 05:56 | 25.16372 | 61.42163 | 14799 ft | 401 kts | 85° |
| 2026-05-08 05:57 | 25.16597 | 61.45221 | 14243 ft | 398 kts | 85° |
| 2026-05-08 05:57 | 25.16820 | 61.48259 | 13689 ft | 397 kts | 85° |
| 2026-05-08 05:57 | 25.17043 | 61.51286 | 13089 ft | 395 kts | 84° |
| 2026-05-08 05:57 | 25.17263 | 61.54298 | 12523 ft | 392 kts | 85° |
| 2026-05-08 05:58 | 25.17479 | 61.57246 | 11962 ft | 390 kts | 85° |
| 2026-05-08 05:58 | 25.17694 | 61.60220 | 11426 ft | 387 kts | 85° |
| 2026-05-08 05:58 | 25.17908 | 61.63174 | 10870 ft | 387 kts | 85° |
| 2026-05-08 05:58 | 25.18120 | 61.66094 | 10669 ft | 375 kts | 84° |
| 2026-05-08 05:59 | 25.18323 | 61.68928 | 10495 ft | 364 kts | 85° |
| 2026-05-08 05:59 | 25.18521 | 61.71672 | 10339 ft | 353 kts | 84° |
| 2026-05-08 05:59 | 25.18712 | 61.74335 | 10192 ft | 343 kts | 84° |
| 2026-05-08 05:59 | 25.18895 | 61.76901 | 10034 ft | 327 kts | 84° |
| 2026-05-08 06:00 | 25.19072 | 61.79372 | 9911 ft | 318 kts | 84° |
| 2026-05-08 06:00 | 25.19239 | 61.81737 | 9771 ft | 310 kts | 84° |
| 2026-05-08 06:00 | 25.19407 | 61.84095 | 9571 ft | 305 kts | 84° |
| 2026-05-08 06:00 | 25.19573 | 61.86418 | 9253 ft | 303 kts | 85° |
| 2026-05-08 06:01 | 25.19734 | 61.88689 | 8887 ft | 290 kts | 85° |
| 2026-05-08 06:01 | 25.19888 | 61.90878 | 8468 ft | 285 kts | 85° |
| 2026-05-08 06:01 | 25.20042 | 61.93054 | 8135 ft | 284 kts | 85° |
| 2026-05-08 06:01 | 25.20196 | 61.95228 | 7811 ft | 284 kts | 85° |
| 2026-05-08 06:02 | 25.20348 | 61.97401 | 7490 ft | 284 kts | 85° |
| 2026-05-08 06:02 | 25.20499 | 61.99547 | 7162 ft | 284 kts | 85° |
| 2026-05-08 06:02 | 25.20651 | 62.01714 | 6854 ft | 283 kts | 85° |
| 2026-05-08 06:02 | 25.20802 | 62.03889 | 6524 ft | 285 kts | 85° |
| 2026-05-08 06:03 | 25.20953 | 62.06068 | 6222 ft | 284 kts | 85° |
| 2026-05-08 06:03 | 25.21101 | 62.08207 | 6124 ft | 276 kts | 85° |
| 2026-05-08 06:03 | 25.21250 | 62.10342 | 5778 ft | 281 kts | 85° |
| 2026-05-08 06:03 | 25.21399 | 62.12505 | 5439 ft | 284 kts | 85° |
| 2026-05-08 06:04 | 25.21549 | 62.14680 | 5121 ft | 284 kts | 85° |
| 2026-05-08 06:04 | 25.21698 | 62.16856 | 4812 ft | 284 kts | 85° |
| 2026-05-08 06:04 | 25.21846 | 62.19002 | 4486 ft | 284 kts | 85° |
| 2026-05-08 06:04 | 25.21992 | 62.21182 | 4166 ft | 285 kts | 85° |
| 2026-05-08 06:05 | 25.22145 | 62.23371 | 3901 ft | 286 kts | 85° |
| 2026-05-08 06:05 | 25.22296 | 62.25544 | 3742 ft | 281 kts | 85° |
| 2026-05-08 06:05 | 25.22438 | 62.27637 | 3594 ft | 265 kts | 85° |
| 2026-05-08 06:05 | 25.22604 | 62.29587 | 3414 ft | 247 kts | 77° |
| 2026-05-08 06:06 | 25.23122 | 62.31333 | 3186 ft | 233 kts | 66° |
| 2026-05-08 06:06 | 25.23729 | 62.32960 | 2896 ft | 224 kts | 65° |
| 2026-05-08 06:06 | 25.24293 | 62.34498 | 2634 ft | 214 kts | 66° |
| 2026-05-08 06:06 | 25.24826 | 62.35984 | 2427 ft | 202 kts | 67° |
| 2026-05-08 06:07 | 25.25322 | 62.37381 | 2106 ft | 189 kts | 68° |
| 2026-05-08 06:07 | 25.25782 | 62.38681 | 1890 ft | 178 kts | 68° |
| 2026-05-08 06:07 | 25.26222 | 62.39936 | 1677 ft | 174 kts | 69° |
| 2026-05-08 06:07 | 25.26657 | 62.41176 | 1435 ft | 167 kts | 70° |
| 2026-05-08 06:08 | 25.27049 | 62.42306 | 1223 ft | 151 kts | 69° |
| 2026-05-08 06:08 | 25.27409 | 62.43340 | 993 ft | 137 kts | 72° |
| 2026-05-08 06:08 | 25.27746 | 62.44316 | 903 ft | 138 kts | 72° |
| 2026-05-08 06:08 | 25.28089 | 62.45295 | 726 ft | 138 kts | 72° |
| 2026-05-08 06:09 | 25.28439 | 62.46307 | 567 ft | 145 kts | 71° |
| 2026-05-08 06:09 | 25.28796 | 62.47324 | 292 ft | 137 kts | 73° |
| 2026-05-08 06:09 | 25.29128 | 62.48302 | 104 ft | 138 kts | 72° |
| 2026-05-08 06:09 | 25.29438 | 62.49208 | 88 ft | 106 kts | 69° |
| 2026-05-08 06:10 | 25.29669 | 62.49879 | 83 ft | 74 kts | 69° |
| 2026-05-08 06:10 | 25.29797 | 62.50255 | 84 ft | 47 kts | 69° |
| 2026-05-08 06:10 | 25.29894 | 62.50555 | 85 ft | 28 kts | 79° |
| 2026-05-08 06:10 | 25.29777 | 62.50702 | 67 ft | 28 kts | 153° |
| 2026-05-08 06:11 | 25.29725 | 62.50762 | 67 ft | 0 kts | 94° |